createdAt,value
2018-12-04T00:00:32.431Z,984.28
2018-12-04T00:01:32.423Z,984.36
2018-12-04T00:02:32.439Z,984.33
2018-12-04T00:03:32.400Z,984.36
2018-12-04T00:04:32.385Z,984.30
2018-12-04T00:05:32.387Z,984.32
2018-12-04T00:06:32.364Z,984.31
2018-12-04T00:07:32.376Z,984.30
2018-12-04T00:08:32.340Z,984.30
2018-12-04T00:09:32.328Z,984.31
2018-12-04T00:10:32.317Z,984.27
2018-12-04T00:11:32.308Z,984.21
2018-12-04T00:12:32.325Z,984.24
2018-12-04T00:13:32.317Z,984.24
2018-12-04T00:14:32.280Z,984.28
2018-12-04T00:15:32.261Z,984.22
2018-12-04T00:16:32.721Z,984.35
2018-12-04T00:17:32.263Z,984.32
2018-12-04T00:18:32.246Z,984.32
2018-12-04T00:19:32.215Z,984.33
2018-12-04T00:20:32.228Z,984.39
2018-12-04T00:21:32.193Z,984.42
2018-12-04T00:22:32.243Z,984.42
2018-12-04T00:23:32.173Z,984.43
2018-12-04T00:24:32.162Z,984.44
2018-12-04T00:25:32.169Z,984.45
2018-12-04T00:26:32.138Z,984.49
2018-12-04T00:27:32.125Z,984.50
2018-12-04T00:28:32.122Z,984.53
2018-12-04T00:29:32.144Z,984.53
2018-12-04T00:30:32.093Z,984.55
2018-12-04T00:31:32.080Z,984.62
2018-12-04T00:32:32.068Z,984.60
2018-12-04T00:33:32.096Z,984.61
2018-12-04T00:34:32.046Z,984.62
2018-12-04T00:35:32.035Z,984.64
2018-12-04T00:36:32.038Z,984.68
2018-12-04T00:37:32.090Z,984.69
2018-12-04T00:38:32.000Z,984.71
2018-12-04T00:39:32.015Z,984.70
2018-12-04T00:40:31.978Z,984.65
2018-12-04T00:41:31.967Z,984.63
2018-12-04T00:42:31.969Z,984.67
2018-12-04T00:43:31.943Z,984.63
2018-12-04T00:44:31.952Z,984.64
2018-12-04T00:45:31.927Z,984.62
2018-12-04T00:46:31.911Z,984.61
2018-12-04T00:47:31.898Z,984.64
2018-12-04T00:48:31.905Z,984.68
2018-12-04T00:49:31.901Z,984.69
2018-12-04T00:50:31.865Z,984.72
2018-12-04T00:51:31.852Z,984.70
2018-12-04T00:52:31.843Z,984.78
2018-12-04T00:53:31.853Z,984.78
2018-12-04T00:54:31.856Z,984.80
2018-12-04T00:55:31.816Z,984.86
2018-12-04T00:56:31.796Z,984.98
2018-12-04T00:57:31.789Z,985.06
2018-12-04T00:58:31.791Z,985.06
2018-12-04T00:59:31.789Z,985.11
2018-12-04T01:00:31.753Z,985.11
2018-12-04T01:01:31.758Z,985.23
2018-12-04T01:02:31.753Z,985.36
2018-12-04T01:03:31.743Z,985.41
2018-12-04T01:04:31.728Z,985.56
2018-12-04T01:05:31.696Z,985.49
2018-12-04T01:06:31.798Z,985.50
2018-12-04T01:07:31.679Z,985.56
2018-12-04T01:08:31.686Z,985.61
2018-12-04T01:09:31.651Z,985.61
2018-12-04T01:10:31.640Z,985.60
2018-12-04T01:11:31.653Z,985.60
2018-12-04T01:12:31.643Z,985.61
2018-12-04T01:13:31.605Z,985.56
2018-12-04T01:14:31.610Z,985.62
2018-12-04T01:15:31.582Z,985.63
2018-12-04T01:16:31.572Z,985.67
2018-12-04T01:17:31.584Z,985.70
2018-12-04T01:18:31.572Z,985.77
2018-12-04T01:19:31.539Z,985.82
2018-12-04T01:20:31.542Z,985.82
2018-12-04T01:21:31.515Z,985.84
2018-12-04T01:22:31.505Z,985.90
2018-12-04T01:23:31.514Z,985.90
2018-12-04T01:24:31.495Z,985.93
2018-12-04T01:25:31.506Z,985.95
2018-12-04T01:26:31.460Z,986.01
2018-12-04T01:27:31.458Z,986.06
2018-12-04T01:28:31.438Z,986.09
2018-12-04T01:29:31.425Z,986.12
2018-12-04T01:30:31.469Z,986.14
2018-12-04T01:31:31.404Z,986.16
2018-12-04T01:32:31.390Z,986.16
2018-12-04T01:33:31.402Z,986.21
2018-12-04T01:34:31.376Z,986.23
2018-12-04T01:35:31.378Z,986.27
2018-12-04T01:36:31.348Z,986.29
2018-12-04T01:37:31.342Z,986.33
2018-12-04T01:38:31.322Z,986.37
2018-12-04T01:39:31.343Z,986.43
2018-12-04T01:40:31.300Z,986.49
2018-12-04T01:41:31.364Z,986.53
2018-12-04T01:42:31.276Z,986.59
2018-12-04T01:43:31.266Z,986.58
2018-12-04T01:44:31.289Z,986.63
2018-12-04T01:45:31.247Z,986.66
2018-12-04T01:46:31.234Z,986.70
2018-12-04T01:47:31.223Z,986.73
2018-12-04T01:48:31.278Z,986.78
2018-12-04T01:49:31.233Z,986.73
2018-12-04T01:50:31.186Z,986.77
2018-12-04T01:51:31.177Z,986.82
2018-12-04T01:52:31.185Z,986.87
2018-12-04T01:53:31.155Z,986.90
2018-12-04T01:54:31.166Z,986.94
2018-12-04T01:55:31.159Z,987.03
2018-12-04T01:56:31.120Z,987.05
2018-12-04T01:57:31.111Z,987.03
2018-12-04T01:58:31.122Z,987.11
2018-12-04T01:59:31.087Z,987.14
2018-12-04T02:00:31.078Z,987.19
2018-12-04T02:01:31.068Z,987.21
2018-12-04T02:02:31.077Z,987.22
2018-12-04T02:03:31.044Z,987.29
2018-12-04T02:04:31.030Z,987.30
2018-12-04T02:05:31.150Z,987.29
2018-12-04T02:06:31.008Z,987.40
2018-12-04T02:07:30.995Z,987.41
2018-12-04T02:08:30.986Z,987.52
2018-12-04T02:09:30.976Z,987.47
2018-12-04T02:10:30.984Z,987.52
2018-12-04T02:11:30.951Z,987.54
2018-12-04T02:12:30.939Z,987.59
2018-12-04T02:13:30.953Z,987.65
2018-12-04T02:14:30.942Z,987.65
2018-12-04T02:15:30.909Z,987.74
2018-12-04T02:16:30.895Z,987.71
2018-12-04T02:17:30.884Z,987.77
2018-12-04T02:18:30.874Z,987.75
2018-12-04T02:19:30.894Z,987.84
2018-12-04T02:20:30.853Z,987.82
2018-12-04T02:21:30.843Z,987.88
2018-12-04T02:22:30.827Z,987.95
2018-12-04T02:23:30.822Z,988.00
2018-12-04T02:24:30.820Z,988.07
2018-12-04T02:25:30.804Z,988.12
2018-12-04T02:26:30.781Z,988.09
2018-12-04T02:27:30.774Z,988.11
2018-12-04T02:28:30.759Z,988.18
2018-12-04T02:29:30.783Z,988.17
2018-12-04T02:30:30.743Z,988.22
2018-12-04T02:31:30.725Z,988.33
2018-12-04T02:32:30.720Z,988.29
2018-12-04T02:33:30.704Z,988.30
2018-12-04T02:34:30.714Z,988.30
2018-12-04T02:35:30.678Z,988.38
2018-12-04T02:36:30.695Z,988.43
2018-12-04T02:37:30.679Z,988.46
2018-12-04T02:38:30.688Z,988.52
2018-12-04T02:39:30.657Z,988.55
2018-12-04T02:40:30.624Z,988.54
2018-12-04T02:41:30.614Z,988.55
2018-12-04T02:42:30.607Z,988.57
2018-12-04T02:43:30.606Z,988.58
2018-12-04T02:44:30.594Z,988.60
2018-12-04T02:45:30.577Z,988.64
2018-12-04T02:46:30.556Z,988.66
2018-12-04T02:47:30.566Z,988.65
2018-12-04T02:48:30.533Z,988.66
2018-12-04T02:49:30.522Z,988.73
2018-12-04T02:50:30.523Z,988.79
2018-12-04T02:51:30.516Z,988.76
2018-12-04T02:52:30.488Z,988.79
2018-12-04T02:53:30.500Z,988.85
2018-12-04T02:54:30.463Z,988.90
2018-12-04T02:55:30.452Z,988.90
2018-12-04T02:56:30.449Z,988.94
2018-12-04T02:57:30.463Z,989.01
2018-12-04T02:58:30.421Z,989.05
2018-12-04T02:59:30.416Z,989.09
2018-12-04T03:00:30.399Z,989.08
2018-12-04T03:01:30.412Z,989.12
2018-12-04T03:02:30.378Z,989.18
2018-12-04T03:03:30.363Z,989.21
2018-12-04T03:04:30.352Z,989.30
2018-12-04T03:05:30.373Z,989.32
2018-12-04T03:06:30.341Z,989.28
2018-12-04T03:07:30.337Z,989.37
2018-12-04T03:08:30.307Z,989.43
2018-12-04T03:09:30.297Z,989.49
2018-12-04T03:10:30.313Z,989.50
2018-12-04T03:11:30.273Z,989.52
2018-12-04T03:12:30.263Z,989.59
2018-12-04T03:13:30.269Z,989.64
2018-12-04T03:14:30.261Z,989.66
2018-12-04T03:15:30.228Z,989.73
2018-12-04T03:16:30.217Z,989.71
2018-12-04T03:17:30.233Z,989.71
2018-12-04T03:18:30.193Z,989.68
2018-12-04T03:19:30.184Z,989.77
2018-12-04T03:20:30.174Z,989.80
2018-12-04T03:21:30.197Z,989.79
2018-12-04T03:22:30.175Z,989.79
2018-12-04T03:23:30.138Z,989.79
2018-12-04T03:24:30.131Z,989.79
2018-12-04T03:25:30.113Z,989.80
2018-12-04T03:26:30.111Z,989.86
2018-12-04T03:27:30.116Z,989.85
2018-12-04T03:28:30.080Z,989.88
2018-12-04T03:29:30.073Z,989.91
2018-12-04T03:30:30.074Z,989.92
2018-12-04T03:31:30.050Z,989.93
2018-12-04T03:32:30.065Z,989.95
2018-12-04T03:33:30.045Z,989.98
2018-12-04T03:34:30.013Z,989.98
2018-12-04T03:35:30.003Z,990.01
2018-12-04T03:36:30.014Z,990.08
2018-12-04T03:37:29.983Z,990.12
2018-12-04T03:38:29.970Z,990.10
2018-12-04T03:39:29.996Z,990.17
2018-12-04T03:40:29.950Z,990.13
2018-12-04T03:41:29.961Z,990.16
2018-12-04T03:42:29.928Z,990.18
2018-12-04T03:43:29.910Z,990.20
2018-12-04T03:44:29.928Z,990.18
2018-12-04T03:45:29.893Z,990.22
2018-12-04T03:46:29.880Z,990.23
2018-12-04T03:47:29.869Z,990.23
2018-12-04T03:48:29.872Z,990.26
2018-12-04T03:49:29.866Z,990.25
2018-12-04T03:50:29.844Z,990.28
2018-12-04T03:51:29.854Z,990.29
2018-12-04T03:52:29.811Z,990.35
2018-12-04T03:53:29.832Z,990.35
2018-12-04T03:54:29.788Z,990.40
2018-12-04T03:55:29.775Z,990.48
2018-12-04T03:56:29.792Z,990.51
2018-12-04T03:57:29.780Z,990.55
2018-12-04T03:58:29.752Z,990.58
2018-12-04T03:59:29.780Z,990.62
2018-12-04T04:00:29.722Z,990.62
2018-12-04T04:01:29.709Z,990.62
2018-12-04T04:02:29.704Z,990.70
2018-12-04T04:03:29.690Z,990.69
2018-12-04T04:04:29.699Z,990.67
2018-12-04T04:05:29.663Z,990.75
2018-12-04T04:06:29.670Z,990.81
2018-12-04T04:07:29.657Z,990.78
2018-12-04T04:08:29.628Z,990.84
2018-12-04T04:09:29.648Z,990.88
2018-12-04T04:10:29.605Z,990.89
2018-12-04T04:11:29.596Z,990.91
2018-12-04T04:12:29.605Z,990.92
2018-12-04T04:13:29.572Z,990.98
2018-12-04T04:14:29.590Z,991.02
2018-12-04T04:15:29.575Z,991.06
2018-12-04T04:16:29.543Z,991.03
2018-12-04T04:17:29.529Z,991.06
2018-12-04T04:18:29.517Z,991.00
2018-12-04T04:19:29.527Z,991.08
2018-12-04T04:20:29.494Z,991.05
2018-12-04T04:21:29.482Z,991.11
2018-12-04T04:22:29.492Z,991.19
2018-12-04T04:23:29.490Z,991.22
2018-12-04T04:24:29.452Z,991.19
2018-12-04T04:25:29.438Z,991.23
2018-12-04T04:26:29.424Z,991.24
2018-12-04T04:27:29.455Z,991.22
2018-12-04T04:28:29.424Z,991.24
2018-12-04T04:29:29.390Z,991.21
2018-12-04T04:30:29.393Z,991.22
2018-12-04T04:31:29.369Z,991.19
2018-12-04T04:32:29.367Z,991.24
2018-12-04T04:33:29.377Z,991.24
2018-12-04T04:34:29.362Z,991.25
2018-12-04T04:35:29.323Z,991.24
2018-12-04T04:36:29.316Z,991.29
2018-12-04T04:37:29.326Z,991.30
2018-12-04T04:38:29.289Z,991.30
2018-12-04T04:39:29.328Z,991.34
2018-12-04T04:40:29.293Z,991.42
2018-12-04T04:41:29.254Z,991.48
2018-12-04T04:42:29.246Z,991.47
2018-12-04T04:43:29.233Z,991.53
2018-12-04T04:44:29.249Z,991.53
2018-12-04T04:45:29.231Z,991.58
2018-12-04T04:46:29.204Z,991.66
2018-12-04T04:47:29.188Z,991.66
2018-12-04T04:48:29.204Z,991.66
2018-12-04T04:49:29.198Z,991.71
2018-12-04T04:50:29.189Z,991.70
2018-12-04T04:51:29.143Z,991.72
2018-12-04T04:52:29.167Z,991.71
2018-12-04T04:53:29.129Z,991.78
2018-12-04T04:54:29.111Z,991.74
2018-12-04T04:55:29.099Z,991.73
2018-12-04T04:56:29.120Z,991.82
2018-12-04T04:57:29.107Z,991.80
2018-12-04T04:58:29.065Z,991.78
2018-12-04T04:59:29.056Z,991.81
2018-12-04T05:00:29.049Z,991.84
2018-12-04T05:01:29.029Z,991.88
2018-12-04T05:02:29.065Z,991.88
2018-12-04T05:03:29.007Z,991.96
2018-12-04T05:04:28.996Z,991.94
2018-12-04T05:05:28.985Z,991.93
2018-12-04T05:06:28.994Z,991.97
2018-12-04T05:07:28.990Z,992.01
2018-12-04T05:08:28.951Z,991.99
2018-12-04T05:09:28.950Z,992.05
2018-12-04T05:10:28.930Z,992.06
2018-12-04T05:11:28.949Z,992.06
2018-12-04T05:12:28.911Z,992.04
2018-12-04T05:13:28.924Z,992.04
2018-12-04T05:14:28.884Z,992.10
2018-12-04T05:15:28.926Z,992.12
2018-12-04T05:16:28.876Z,992.16
2018-12-04T05:17:28.853Z,992.24
2018-12-04T05:18:28.862Z,992.24
2018-12-04T05:19:28.828Z,992.22
2018-12-04T05:20:28.818Z,992.21
2018-12-04T05:21:28.844Z,992.20
2018-12-04T05:22:28.794Z,992.21
2018-12-04T05:23:28.782Z,992.24
2018-12-04T05:24:28.796Z,992.28
2018-12-04T05:25:28.761Z,992.33
2018-12-04T05:26:28.751Z,992.28
2018-12-04T05:27:28.744Z,992.40
2018-12-04T05:28:28.727Z,992.41
2018-12-04T05:29:28.742Z,992.44
2018-12-04T05:30:28.705Z,992.50
2018-12-04T05:31:28.695Z,992.53
2018-12-04T05:32:28.722Z,992.58
2018-12-04T05:33:28.671Z,992.52
2018-12-04T05:34:28.694Z,992.53
2018-12-04T05:35:28.658Z,992.58
2018-12-04T05:36:28.639Z,992.54
2018-12-04T05:37:28.625Z,992.60
2018-12-04T05:38:28.629Z,992.63
2018-12-04T05:39:28.628Z,992.67
2018-12-04T05:40:28.592Z,992.71
2018-12-04T05:41:28.582Z,992.74
2018-12-04T05:42:28.569Z,992.79
2018-12-04T05:43:28.586Z,992.77
2018-12-04T05:44:28.601Z,992.82
2018-12-04T05:45:28.537Z,992.83
2018-12-04T05:46:28.581Z,992.87
2018-12-04T05:47:28.514Z,992.86
2018-12-04T05:48:28.504Z,992.85
2018-12-04T05:49:28.505Z,992.96
2018-12-04T05:50:28.503Z,992.97
2018-12-04T05:51:28.495Z,993.06
2018-12-04T05:52:28.517Z,993.13
2018-12-04T05:53:28.452Z,993.23
2018-12-04T05:54:28.438Z,993.15
2018-12-04T05:55:28.451Z,993.21
2018-12-04T05:56:28.413Z,993.24
2018-12-04T05:57:28.405Z,993.21
2018-12-04T05:58:28.395Z,993.08
2018-12-04T05:59:28.400Z,993.15
2018-12-04T06:00:28.371Z,993.15
2018-12-04T06:01:28.370Z,993.17
2018-12-04T06:02:28.370Z,993.19
2018-12-04T06:03:28.344Z,993.20
2018-12-04T06:04:28.323Z,993.18
2018-12-04T06:05:28.319Z,993.25
2018-12-04T06:06:28.327Z,993.26
2018-12-04T06:07:28.291Z,993.27
2018-12-04T06:08:28.281Z,993.31
2018-12-04T06:09:28.307Z,993.37
2018-12-04T06:10:28.261Z,993.39
2018-12-04T06:11:28.246Z,993.40
2018-12-04T06:12:28.238Z,993.38
2018-12-04T06:13:28.248Z,993.42
2018-12-04T06:14:28.286Z,993.41
2018-12-04T06:15:28.210Z,993.50
2018-12-04T06:16:28.192Z,993.51
2018-12-04T06:17:28.178Z,993.50
2018-12-04T06:18:28.174Z,993.59
2018-12-04T06:19:28.173Z,993.61
2018-12-04T06:20:28.172Z,993.65
2018-12-04T06:21:28.136Z,993.67
2018-12-04T06:22:28.128Z,993.63
2018-12-04T06:23:28.136Z,993.64
2018-12-04T06:24:28.107Z,993.67
2018-12-04T06:25:28.113Z,993.72
2018-12-04T06:26:28.936Z,993.70
2018-12-04T06:27:28.067Z,993.77
2018-12-04T06:28:28.056Z,993.79
2018-12-04T06:29:28.053Z,993.85
2018-12-04T06:30:28.063Z,993.88
2018-12-04T06:31:28.037Z,993.93
2018-12-04T06:32:28.020Z,993.94
2018-12-04T06:33:27.999Z,994.02
2018-12-04T06:34:28.002Z,994.00
2018-12-04T06:35:27.999Z,994.02
2018-12-04T06:36:27.972Z,994.06
2018-12-04T06:37:27.955Z,994.14
2018-12-04T06:38:27.969Z,994.15
2018-12-04T06:39:27.937Z,994.21
2018-12-04T06:40:27.928Z,994.26
2018-12-04T06:41:27.913Z,994.25
2018-12-04T06:42:27.924Z,994.29
2018-12-04T06:43:27.888Z,994.30
2018-12-04T06:44:27.878Z,994.37
2018-12-04T06:45:27.867Z,994.36
2018-12-04T06:46:27.874Z,994.38
2018-12-04T06:47:27.870Z,994.47
2018-12-04T06:48:27.833Z,994.46
2018-12-04T06:49:27.847Z,994.49
2018-12-04T06:50:27.825Z,994.53
2018-12-04T06:51:27.799Z,994.55
2018-12-04T06:52:27.790Z,994.59
2018-12-04T06:53:27.812Z,994.64
2018-12-04T06:54:27.766Z,994.67
2018-12-04T06:55:27.754Z,994.66
2018-12-04T06:56:27.745Z,994.71
2018-12-04T06:57:27.774Z,994.72
2018-12-04T06:58:27.720Z,994.74
2018-12-04T06:59:27.728Z,994.78
2018-12-04T07:00:27.698Z,994.80
2018-12-04T07:01:27.689Z,994.82
2018-12-04T07:02:27.702Z,994.83
2018-12-04T07:03:27.669Z,994.84
2018-12-04T07:04:27.681Z,994.88
2018-12-04T07:05:27.655Z,994.88
2018-12-04T07:06:27.633Z,994.96
2018-12-04T07:07:27.620Z,994.96
2018-12-04T07:08:27.644Z,994.99
2018-12-04T07:09:27.598Z,995.00
2018-12-04T07:10:27.585Z,995.00
2018-12-04T07:11:27.580Z,995.05
2018-12-04T07:12:27.565Z,995.07
2018-12-04T07:13:27.578Z,995.11
2018-12-04T07:14:27.541Z,995.12
2018-12-04T07:15:27.531Z,995.15
2018-12-04T07:16:27.522Z,995.15
2018-12-04T07:17:27.535Z,995.24
2018-12-04T07:18:27.508Z,995.22
2018-12-04T07:19:27.503Z,995.30
2018-12-04T07:20:27.475Z,995.29
2018-12-04T07:21:27.497Z,995.32
2018-12-04T07:22:27.452Z,995.35
2018-12-04T07:23:27.443Z,995.38
2018-12-04T07:24:27.462Z,995.47
2018-12-04T07:25:27.423Z,995.46
2018-12-04T07:26:27.407Z,995.46
2018-12-04T07:27:27.396Z,995.49
2018-12-04T07:28:27.408Z,995.54
2018-12-04T07:29:27.398Z,995.52
2018-12-04T07:30:27.403Z,995.58
2018-12-04T07:31:27.355Z,995.53
2018-12-04T07:32:27.365Z,995.63
2018-12-04T07:33:27.330Z,995.62
2018-12-04T07:34:27.319Z,995.64
2018-12-04T07:35:27.308Z,995.67
2018-12-04T07:36:27.319Z,995.75
2018-12-04T07:37:27.304Z,995.74
2018-12-04T07:38:27.274Z,995.81
2018-12-04T07:39:27.262Z,995.85
2018-12-04T07:40:27.267Z,995.83
2018-12-04T07:41:27.261Z,995.80
2018-12-04T07:42:27.232Z,995.86
2018-12-04T07:43:27.216Z,995.93
2018-12-04T07:44:27.218Z,995.92
2018-12-04T07:45:27.195Z,995.97
2018-12-04T07:46:27.210Z,995.96
2018-12-04T07:47:27.173Z,996.05
2018-12-04T07:48:27.160Z,996.05
2018-12-04T07:49:27.174Z,996.15
2018-12-04T07:50:27.152Z,996.14
2018-12-04T07:51:27.130Z,996.20
2018-12-04T07:52:27.143Z,996.18
2018-12-04T07:53:27.106Z,996.21
2018-12-04T07:54:27.092Z,996.24
2018-12-04T07:55:27.082Z,996.28
2018-12-04T07:56:27.078Z,996.30
2018-12-04T07:57:27.091Z,996.30
2018-12-04T07:58:27.048Z,996.29
2018-12-04T07:59:27.037Z,996.27
2018-12-04T08:00:27.026Z,996.28
2018-12-04T08:01:27.015Z,996.33
2018-12-04T08:02:27.038Z,996.33
2018-12-04T08:03:27.002Z,996.35
2018-12-04T08:04:26.996Z,996.40
2018-12-04T08:05:26.971Z,996.43
2018-12-04T08:06:26.959Z,996.42
2018-12-04T08:07:26.976Z,996.44
2018-12-04T08:08:26.937Z,996.52
2018-12-04T08:09:26.936Z,996.52
2018-12-04T08:10:26.940Z,996.57
2018-12-04T08:11:26.945Z,996.59
2018-12-04T08:12:26.892Z,996.69
2018-12-04T08:13:26.909Z,996.68
2018-12-04T08:14:26.872Z,996.70
2018-12-04T08:15:26.858Z,996.73
2018-12-04T08:16:26.863Z,996.77
2018-12-04T08:17:26.866Z,996.78
2018-12-04T08:18:26.839Z,996.85
2018-12-04T08:19:26.836Z,996.84
2018-12-04T08:20:26.804Z,996.86
2018-12-04T08:21:26.807Z,996.82
2018-12-04T08:22:26.780Z,996.89
2018-12-04T08:23:26.791Z,996.81
2018-12-04T08:24:26.767Z,996.87
2018-12-04T08:25:26.749Z,996.93
2018-12-04T08:26:26.759Z,996.92
2018-12-04T08:27:26.725Z,996.92
2018-12-04T08:28:26.740Z,996.94
2018-12-04T08:29:26.717Z,996.96
2018-12-04T08:30:26.696Z,997.06
2018-12-04T08:31:26.682Z,997.10
2018-12-04T08:32:26.692Z,997.08
2018-12-04T08:33:26.655Z,997.17
2018-12-04T08:34:26.644Z,997.12
2018-12-04T08:35:26.657Z,997.11
2018-12-04T08:36:26.622Z,997.15
2018-12-04T08:37:26.615Z,997.15
2018-12-04T08:38:26.600Z,997.16
2018-12-04T08:39:26.615Z,997.17
2018-12-04T08:40:26.577Z,997.22
2018-12-04T08:41:26.590Z,997.22
2018-12-04T08:42:26.555Z,997.28
2018-12-04T08:43:26.617Z,997.26
2018-12-04T08:44:26.533Z,997.29
2018-12-04T08:45:26.522Z,997.28
2018-12-04T08:46:26.841Z,997.30
2018-12-04T08:47:26.502Z,997.33
2018-12-04T08:48:26.490Z,997.34
2018-12-04T08:49:26.493Z,997.38
2018-12-04T08:50:26.466Z,997.34
2018-12-04T08:51:26.477Z,997.36
2018-12-04T08:52:26.442Z,997.40
2018-12-04T08:53:26.437Z,997.39
2018-12-04T08:54:26.420Z,997.45
2018-12-04T08:55:26.458Z,997.56
2018-12-04T08:56:26.422Z,997.56
2018-12-04T08:57:26.388Z,997.59
2018-12-04T08:58:26.376Z,997.63
2018-12-04T08:59:26.371Z,997.63
2018-12-04T09:00:26.383Z,997.68
2018-12-04T09:01:26.370Z,997.66
2018-12-04T09:02:26.355Z,997.76
2018-12-04T09:03:26.320Z,997.66
2018-12-04T09:04:26.332Z,997.73
2018-12-04T09:05:26.316Z,997.66
2018-12-04T09:06:26.287Z,997.71
2018-12-04T09:07:26.277Z,997.73
2018-12-04T09:08:26.265Z,997.78
2018-12-04T09:09:26.279Z,997.75
2018-12-04T09:10:26.262Z,997.73
2018-12-04T09:11:26.230Z,997.77
2018-12-04T09:12:26.219Z,997.79
2018-12-04T09:13:26.236Z,997.84
2018-12-04T09:14:26.196Z,997.86
2018-12-04T09:15:26.187Z,997.86
2018-12-04T09:16:26.223Z,997.90
2018-12-04T09:17:26.164Z,997.88
2018-12-04T09:18:26.168Z,997.89
2018-12-04T09:19:26.206Z,997.89
2018-12-04T09:20:26.158Z,997.93
2018-12-04T09:21:26.124Z,997.97
2018-12-04T09:22:26.134Z,997.98
2018-12-04T09:23:26.095Z,998.03
2018-12-04T09:24:30.650Z,998.05
2018-12-04T09:25:26.116Z,998.12
2018-12-04T09:26:26.066Z,998.14
2018-12-04T09:27:26.089Z,998.13
2018-12-04T09:28:26.039Z,998.13
2018-12-04T09:29:26.031Z,998.13
2018-12-04T09:30:26.016Z,998.15
2018-12-04T09:31:26.006Z,998.23
2018-12-04T09:32:26.018Z,998.25
2018-12-04T09:33:26.017Z,998.27
2018-12-04T09:34:29.814Z,998.31
2018-12-04T09:35:25.962Z,998.35
2018-12-04T09:36:25.949Z,998.39
2018-12-04T09:37:25.937Z,998.38
2018-12-04T09:38:25.944Z,998.42
2018-12-04T09:39:25.935Z,998.45
2018-12-04T09:40:25.927Z,998.49
2018-12-04T09:41:25.891Z,998.51
2018-12-04T09:42:25.882Z,998.52
2018-12-04T09:43:25.870Z,998.52
2018-12-04T09:44:25.857Z,998.53
2018-12-04T09:45:25.888Z,998.57
2018-12-04T09:46:25.850Z,998.59
2018-12-04T09:47:25.830Z,998.68
2018-12-04T09:48:25.813Z,998.62
2018-12-04T09:49:25.803Z,998.65
2018-12-04T09:50:25.897Z,998.69
2018-12-04T09:51:25.823Z,998.65
2018-12-04T09:52:25.768Z,998.66
2018-12-04T09:53:25.756Z,998.65
2018-12-04T09:54:25.766Z,998.70
2018-12-04T09:55:25.756Z,998.74
2018-12-04T09:56:25.723Z,998.73
2018-12-04T09:57:25.778Z,998.76
2018-12-04T09:58:25.710Z,998.79
2018-12-04T09:59:26.241Z,998.88
2018-12-04T10:00:25.705Z,998.85
2018-12-04T10:01:25.719Z,998.84
2018-12-04T10:02:25.685Z,998.83
2018-12-04T10:03:25.644Z,998.90
2018-12-04T10:04:25.661Z,998.88
2018-12-04T10:05:25.629Z,998.86
2018-12-04T10:06:25.611Z,998.95
2018-12-04T10:07:25.601Z,998.92
2018-12-04T10:08:25.628Z,998.97
2018-12-04T10:09:25.577Z,998.95
2018-12-04T10:10:25.577Z,998.98
2018-12-04T10:11:25.579Z,998.97
2018-12-04T10:12:25.545Z,999.08
2018-12-04T10:13:25.535Z,999.14
2018-12-04T10:14:25.537Z,999.04
2018-12-04T10:15:25.534Z,999.07
2018-12-04T10:16:25.504Z,999.06
2018-12-04T10:17:25.492Z,999.13
2018-12-04T10:18:25.496Z,999.09
2018-12-04T10:19:25.465Z,999.11
2018-12-04T10:20:25.487Z,999.12
2018-12-04T10:21:25.450Z,999.19
2018-12-04T10:22:25.432Z,999.12
2018-12-04T10:23:25.419Z,999.12
2018-12-04T10:24:25.412Z,999.19
2018-12-04T10:25:25.441Z,999.23
2018-12-04T10:26:25.388Z,999.13
2018-12-04T10:27:25.392Z,999.22
2018-12-04T10:28:25.363Z,999.22
2018-12-04T10:29:25.353Z,999.20
2018-12-04T10:30:25.364Z,999.23
2018-12-04T10:31:25.330Z,999.28
2018-12-04T10:32:25.342Z,999.30
2018-12-04T10:33:25.340Z,999.27
2018-12-04T10:34:25.296Z,999.31
2018-12-04T10:35:25.306Z,999.27
2018-12-04T10:36:25.299Z,999.29
2018-12-04T10:37:25.288Z,999.35
2018-12-04T10:38:25.250Z,999.33
2018-12-04T10:39:25.242Z,999.38
2018-12-04T10:40:25.282Z,999.40
2018-12-04T10:41:25.241Z,999.39
2018-12-04T10:42:25.204Z,999.37
2018-12-04T10:43:25.195Z,999.42
2018-12-04T10:44:25.183Z,999.42
2018-12-04T10:45:25.190Z,999.38
2018-12-04T10:46:25.271Z,999.38
2018-12-04T10:47:25.148Z,999.45
2018-12-04T10:48:25.147Z,999.50
2018-12-04T10:49:25.154Z,999.49
2018-12-04T10:50:25.113Z,999.54
2018-12-04T10:51:25.105Z,999.56
2018-12-04T10:52:25.107Z,999.57
2018-12-04T10:53:25.080Z,999.57
2018-12-04T10:54:25.095Z,999.57
2018-12-04T10:55:25.060Z,999.62
2018-12-04T10:56:25.050Z,999.67
2018-12-04T10:57:25.060Z,999.70
2018-12-04T10:58:25.051Z,999.67
2018-12-04T10:59:25.013Z,999.71
2018-12-04T11:00:25.002Z,999.75
2018-12-04T11:01:24.997Z,999.73
2018-12-04T11:02:25.023Z,999.71
2018-12-04T11:03:24.968Z,999.74
2018-12-04T11:04:24.959Z,999.76
2018-12-04T11:05:24.946Z,999.76
2018-12-04T11:06:24.946Z,999.77
2018-12-04T11:07:24.948Z,999.76
2018-12-04T11:08:24.911Z,999.89
2018-12-04T11:09:24.902Z,999.90
2018-12-04T11:10:24.912Z,999.85
2018-12-04T11:11:24.881Z,999.92
2018-12-04T11:12:24.908Z,999.92
2018-12-04T11:13:24.869Z,999.86
2018-12-04T11:14:24.869Z,999.91
2018-12-04T11:15:24.833Z,999.96
2018-12-04T11:16:24.847Z,999.91
2018-12-04T11:17:24.816Z,999.98
2018-12-04T11:18:24.824Z,999.93
2018-12-04T11:19:24.794Z,999.95
2018-12-04T11:20:24.781Z,999.95
2018-12-04T11:21:24.851Z,999.97
2018-12-04T11:22:24.755Z,999.92
2018-12-04T11:23:24.748Z,999.95
2018-12-04T11:24:24.766Z,999.95
2018-12-04T11:25:24.723Z,999.95
2018-12-04T11:26:24.734Z,1000.05
2018-12-04T11:27:24.701Z,999.98
2018-12-04T11:28:24.702Z,1000.06
2018-12-04T11:29:24.682Z,1000.07
2018-12-04T11:30:24.692Z,1000.05
2018-12-04T11:31:24.654Z,1000.07
2018-12-04T11:32:24.689Z,1000.11
2018-12-04T11:33:24.635Z,1000.12
2018-12-04T11:34:24.666Z,1000.11
2018-12-04T11:35:24.610Z,1000.12
2018-12-04T11:36:24.597Z,1000.26
2018-12-04T11:37:24.595Z,1000.20
2018-12-04T11:38:24.584Z,1000.27
2018-12-04T11:39:24.588Z,1000.22
2018-12-04T11:40:24.560Z,1000.19
2018-12-04T11:41:24.590Z,1000.28
2018-12-04T11:42:24.532Z,1000.27
2018-12-04T11:43:24.531Z,1000.24
2018-12-04T11:44:24.511Z,1000.29
2018-12-04T11:45:24.497Z,1000.29
2018-12-04T11:46:24.532Z,1000.35
2018-12-04T11:47:24.477Z,1000.34
2018-12-04T11:48:24.482Z,1000.36
2018-12-04T11:49:24.451Z,1000.36
2018-12-04T11:50:24.457Z,1000.37
2018-12-04T11:51:24.433Z,1000.36
2018-12-04T11:52:24.441Z,1000.40
2018-12-04T11:53:24.450Z,1000.37
2018-12-04T11:54:24.396Z,1000.43
2018-12-04T11:55:24.387Z,1000.40
2018-12-04T11:56:24.403Z,1000.47
2018-12-04T11:57:24.362Z,1000.46
2018-12-04T11:58:24.355Z,1000.47
2018-12-04T11:59:24.340Z,1000.53
2018-12-04T12:00:24.344Z,1000.51
2018-12-04T12:01:24.343Z,1000.51
2018-12-04T12:02:24.310Z,1000.51
2018-12-04T12:03:24.309Z,1000.54
2018-12-04T12:04:24.286Z,1000.59
2018-12-04T12:05:24.302Z,1000.61
2018-12-04T12:06:24.262Z,1000.65
2018-12-04T12:07:24.251Z,1000.63
2018-12-04T12:08:24.261Z,1000.62
2018-12-04T12:09:24.253Z,1000.66
2018-12-04T12:10:24.221Z,1000.72
2018-12-04T12:11:24.214Z,1000.73
2018-12-04T12:12:24.210Z,1000.80
2018-12-04T12:13:24.184Z,1000.79
2018-12-04T12:14:24.191Z,1000.81
2018-12-04T12:15:24.165Z,1000.83
2018-12-04T12:16:24.153Z,1000.90
2018-12-04T12:17:24.151Z,1000.91
2018-12-04T12:18:24.128Z,1000.92
2018-12-04T12:19:24.141Z,1000.98
2018-12-04T12:20:24.106Z,1000.98
2018-12-04T12:21:24.159Z,1001.01
2018-12-04T12:22:24.084Z,1001.04
2018-12-04T12:23:24.097Z,1001.06
2018-12-04T12:24:24.080Z,1001.07
2018-12-04T12:25:24.052Z,1001.12
2018-12-04T12:26:24.044Z,1001.08